sensor_id;sensor_type;location;lat;lon;timestamp;temperature;humidity
3994;DHT22;2011;48.238;13.948;2022-07-17T00:01:34;17.00;99.60
3994;DHT22;2011;48.238;13.948;2022-07-17T00:04:01;17.00;99.80
3994;DHT22;2011;48.238;13.948;2022-07-17T00:06:28;17.00;99.90
3994;DHT22;2011;48.238;13.948;2022-07-17T00:08:56;16.90;99.90
3994;DHT22;2011;48.238;13.948;2022-07-17T00:11:23;16.90;99.90
3994;DHT22;2011;48.238;13.948;2022-07-17T00:13:51;16.90;99.90
3994;DHT22;2011;48.238;13.948;2022-07-17T00:16:18;16.90;99.90
3994;DHT22;2011;48.238;13.948;2022-07-17T00:18:45;16.90;99.90
3994;DHT22;2011;48.238;13.948;2022-07-17T00:21:12;16.80;99.90
3994;DHT22;2011;48.238;13.948;2022-07-17T00:23:39;16.80;99.90
3994;DHT22;2011;48.238;13.948;2022-07-17T00:26:08;16.80;99.90
3994;DHT22;2011;48.238;13.948;2022-07-17T00:28:35;16.80;99.90
3994;DHT22;2011;48.238;13.948;2022-07-17T00:31:02;16.70;99.90
3994;DHT22;2011;48.238;13.948;2022-07-17T00:33:29;16.70;99.90
3994;DHT22;2011;48.238;13.948;2022-07-17T00:35:56;16.60;99.90
3994;DHT22;2011;48.238;13.948;2022-07-17T00:38:23;16.60;99.90
3994;DHT22;2011;48.238;13.948;2022-07-17T00:40:53;16.50;99.90
3994;DHT22;2011;48.238;13.948;2022-07-17T00:43:22;16.50;99.90
3994;DHT22;2011;48.238;13.948;2022-07-17T00:45:55;16.40;99.90
3994;DHT22;2011;48.238;13.948;2022-07-17T00:48:22;16.40;99.90
3994;DHT22;2011;48.238;13.948;2022-07-17T00:50:49;16.30;99.90
3994;DHT22;2011;48.238;13.948;2022-07-17T00:53:16;16.30;99.90
3994;DHT22;2011;48.238;13.948;2022-07-17T00:55:45;16.20;99.90
3994;DHT22;2011;48.238;13.948;2022-07-17T00:58:18;16.20;99.90
3994;DHT22;2011;48.238;13.948;2022-07-17T01:00:47;16.20;99.90
3994;DHT22;2011;48.238;13.948;2022-07-17T01:03:15;16.20;99.90
3994;DHT22;2011;48.238;13.948;2022-07-17T01:05:43;16.20;99.90
3994;DHT22;2011;48.238;13.948;2022-07-17T01:08:10;16.10;99.90
3994;DHT22;2011;48.238;13.948;2022-07-17T01:10:37;16.10;99.90
3994;DHT22;2011;48.238;13.948;2022-07-17T01:13:04;16.10;99.90
3994;DHT22;2011;48.238;13.948;2022-07-17T01:15:32;16.10;99.90
3994;DHT22;2011;48.238;13.948;2022-07-17T01:18:04;16.10;99.90
3994;DHT22;2011;48.238;13.948;2022-07-17T01:20:32;16.10;99.90
3994;DHT22;2011;48.238;13.948;2022-07-17T01:23:00;16.10;99.90
3994;DHT22;2011;48.238;13.948;2022-07-17T01:25:27;16.00;99.90
3994;DHT22;2011;48.238;13.948;2022-07-17T01:27:54;16.00;99.90
3994;DHT22;2011;48.238;13.948;2022-07-17T01:30:21;15.90;99.90
3994;DHT22;2011;48.238;13.948;2022-07-17T01:32:49;15.80;99.90
3994;DHT22;2011;48.238;13.948;2022-07-17T01:35:16;15.80;99.90
3994;DHT22;2011;48.238;13.948;2022-07-17T01:37:44;15.70;99.90
3994;DHT22;2011;48.238;13.948;2022-07-17T01:40:15;15.70;99.90
3994;DHT22;2011;48.238;13.948;2022-07-17T01:42:43;15.70;99.90
3994;DHT22;2011;48.238;13.948;2022-07-17T01:45:11;15.80;99.90
3994;DHT22;2011;48.238;13.948;2022-07-17T01:47:38;15.80;99.90
3994;DHT22;2011;48.238;13.948;2022-07-17T01:50:07;15.80;99.90
3994;DHT22;2011;48.238;13.948;2022-07-17T01:52:35;15.70;99.90
3994;DHT22;2011;48.238;13.948;2022-07-17T01:55:03;15.70;99.90
3994;DHT22;2011;48.238;13.948;2022-07-17T01:57:32;15.60;99.90
3994;DHT22;2011;48.238;13.948;2022-07-17T01:59:59;15.60;99.90
3994;DHT22;2011;48.238;13.948;2022-07-17T02:02:26;15.50;99.90
3994;DHT22;2011;48.238;13.948;2022-07-17T02:04:53;15.50;99.90
3994;DHT22;2011;48.238;13.948;2022-07-17T02:07:20;15.50;99.90
3994;DHT22;2011;48.238;13.948;2022-07-17T02:09:47;15.40;99.90
3994;DHT22;2011;48.238;13.948;2022-07-17T02:12:14;15.50;99.90
3994;DHT22;2011;48.238;13.948;2022-07-17T02:14:42;15.40;99.90
3994;DHT22;2011;48.238;13.948;2022-07-17T02:17:09;15.40;99.90
3994;DHT22;2011;48.238;13.948;2022-07-17T02:19:36;15.40;99.90
3994;DHT22;2011;48.238;13.948;2022-07-17T02:22:04;15.40;99.90
3994;DHT22;2011;48.238;13.948;2022-07-17T02:24:31;15.50;99.90
3994;DHT22;2011;48.238;13.948;2022-07-17T02:26:58;15.50;99.90
3994;DHT22;2011;48.238;13.948;2022-07-17T02:29:24;15.50;99.90
3994;DHT22;2011;48.238;13.948;2022-07-17T02:31:53;15.40;99.90
3994;DHT22;2011;48.238;13.948;2022-07-17T02:34:20;15.50;99.90
3994;DHT22;2011;48.238;13.948;2022-07-17T02:36:47;15.40;99.90
3994;DHT22;2011;48.238;13.948;2022-07-17T02:39:14;15.40;99.90
3994;DHT22;2011;48.238;13.948;2022-07-17T02:41:40;15.40;99.90
3994;DHT22;2011;48.238;13.948;2022-07-17T02:44:07;15.40;99.90
3994;DHT22;2011;48.238;13.948;2022-07-17T02:46:34;15.30;99.90
3994;DHT22;2011;48.238;13.948;2022-07-17T02:49:03;15.30;99.90
3994;DHT22;2011;48.238;13.948;2022-07-17T02:51:30;15.20;99.90
3994;DHT22;2011;48.238;13.948;2022-07-17T02:53:56;15.20;99.90
3994;DHT22;2011;48.238;13.948;2022-07-17T02:56:23;15.10;99.90
3994;DHT22;2011;48.238;13.948;2022-07-17T02:58:50;15.10;99.90
3994;DHT22;2011;48.238;13.948;2022-07-17T03:01:17;15.10;99.90
3994;DHT22;2011;48.238;13.948;2022-07-17T03:03:44;15.10;99.90
3994;DHT22;2011;48.238;13.948;2022-07-17T03:06:13;15.00;99.90
3994;DHT22;2011;48.238;13.948;2022-07-17T03:08:40;15.00;99.90
3994;DHT22;2011;48.238;13.948;2022-07-17T03:11:07;15.00;99.90
3994;DHT22;2011;48.238;13.948;2022-07-17T03:13:34;14.90;99.90
3994;DHT22;2011;48.238;13.948;2022-07-17T03:16:01;14.90;99.90
3994;DHT22;2011;48.238;13.948;2022-07-17T03:18:27;14.90;99.90
3994;DHT22;2011;48.238;13.948;2022-07-17T03:20:54;14.90;99.90
3994;DHT22;2011;48.238;13.948;2022-07-17T03:23:23;14.80;99.90
3994;DHT22;2011;48.238;13.948;2022-07-17T03:25:50;14.80;99.90
3994;DHT22;2011;48.238;13.948;2022-07-17T03:28:17;14.80;99.90
3994;DHT22;2011;48.238;13.948;2022-07-17T03:30:43;14.80;99.90
3994;DHT22;2011;48.238;13.948;2022-07-17T03:33:10;14.80;99.90
3994;DHT22;2011;48.238;13.948;2022-07-17T03:35:37;14.80;99.90
3994;DHT22;2011;48.238;13.948;2022-07-17T03:38:04;14.80;99.90
3994;DHT22;2011;48.238;13.948;2022-07-17T03:40:33;14.70;99.90
3994;DHT22;2011;48.238;13.948;2022-07-17T03:42:59;14.70;99.90
3994;DHT22;2011;48.238;13.948;2022-07-17T03:45:26;14.70;99.90
3994;DHT22;2011;48.238;13.948;2022-07-17T03:47:53;14.70;99.90
3994;DHT22;2011;48.238;13.948;2022-07-17T03:50:20;14.70;99.90
3994;DHT22;2011;48.238;13.948;2022-07-17T03:52:47;14.70;99.90
3994;DHT22;2011;48.238;13.948;2022-07-17T03:55:14;14.70;99.90
3994;DHT22;2011;48.238;13.948;2022-07-17T03:57:43;14.70;99.90
3994;DHT22;2011;48.238;13.948;2022-07-17T04:00:10;14.70;99.90
3994;DHT22;2011;48.238;13.948;2022-07-17T04:02:37;14.70;99.90
3994;DHT22;2011;48.238;13.948;2022-07-17T04:05:04;14.70;99.90
3994;DHT22;2011;48.238;13.948;2022-07-17T04:07:35;14.80;99.90
3994;DHT22;2011;48.238;13.948;2022-07-17T04:10:02;14.70;99.90
3994;DHT22;2011;48.238;13.948;2022-07-17T04:12:29;14.70;99.90
3994;DHT22;2011;48.238;13.948;2022-07-17T04:14:58;14.70;99.90
3994;DHT22;2011;48.238;13.948;2022-07-17T04:17:25;14.70;99.90
3994;DHT22;2011;48.238;13.948;2022-07-17T04:19:52;14.70;99.90
3994;DHT22;2011;48.238;13.948;2022-07-17T04:22:19;14.80;99.90
3994;DHT22;2011;48.238;13.948;2022-07-17T04:24:47;14.80;99.90
3994;DHT22;2011;48.238;13.948;2022-07-17T04:27:14;14.80;99.90
3994;DHT22;2011;48.238;13.948;2022-07-17T04:29:41;14.80;99.90
3994;DHT22;2011;48.238;13.948;2022-07-17T04:32:10;14.80;99.90
3994;DHT22;2011;48.238;13.948;2022-07-17T04:34:37;14.90;99.90
3994;DHT22;2011;48.238;13.948;2022-07-17T04:37:04;14.90;99.90
3994;DHT22;2011;48.238;13.948;2022-07-17T04:39:31;14.90;99.90
3994;DHT22;2011;48.238;13.948;2022-07-17T04:41:58;14.90;99.90
3994;DHT22;2011;48.238;13.948;2022-07-17T04:44:25;15.00;99.90
3994;DHT22;2011;48.238;13.948;2022-07-17T04:46:52;15.00;99.90
3994;DHT22;2011;48.238;13.948;2022-07-17T04:49:22;15.00;99.90
3994;DHT22;2011;48.238;13.948;2022-07-17T04:51:49;15.10;99.90
3994;DHT22;2011;48.238;13.948;2022-07-17T04:54:16;15.10;99.90
3994;DHT22;2011;48.238;13.948;2022-07-17T04:56:43;15.10;99.90
3994;DHT22;2011;48.238;13.948;2022-07-17T04:59:10;15.20;99.90
3994;DHT22;2011;48.238;13.948;2022-07-17T05:01:37;15.20;99.90
3994;DHT22;2011;48.238;13.948;2022-07-17T05:04:04;15.30;99.90
3994;DHT22;2011;48.238;13.948;2022-07-17T05:06:33;15.40;99.90
3994;DHT22;2011;48.238;13.948;2022-07-17T05:09:00;15.60;99.90
3994;DHT22;2011;48.238;13.948;2022-07-17T05:11:27;15.70;99.90
3994;DHT22;2011;48.238;13.948;2022-07-17T05:13:54;15.80;99.90
3994;DHT22;2011;48.238;13.948;2022-07-17T05:16:21;16.00;99.90
3994;DHT22;2011;48.238;13.948;2022-07-17T05:18:48;16.10;99.90
3994;DHT22;2011;48.238;13.948;2022-07-17T05:21:15;16.30;99.90
3994;DHT22;2011;48.238;13.948;2022-07-17T05:23:43;16.40;99.90
3994;DHT22;2011;48.238;13.948;2022-07-17T05:26:10;16.50;99.90
3994;DHT22;2011;48.238;13.948;2022-07-17T05:28:37;16.60;99.90
3994;DHT22;2011;48.238;13.948;2022-07-17T05:31:05;16.80;99.90
3994;DHT22;2011;48.238;13.948;2022-07-17T05:33:32;16.90;99.90
3994;DHT22;2011;48.238;13.948;2022-07-17T05:35:59;16.90;99.90
3994;DHT22;2011;48.238;13.948;2022-07-17T05:38:26;17.10;99.90
3994;DHT22;2011;48.238;13.948;2022-07-17T05:40:54;17.20;99.90
3994;DHT22;2011;48.238;13.948;2022-07-17T05:43:21;17.40;99.90
3994;DHT22;2011;48.238;13.948;2022-07-17T05:45:48;17.50;99.90
3994;DHT22;2011;48.238;13.948;2022-07-17T05:48:15;17.70;99.90
3994;DHT22;2011;48.238;13.948;2022-07-17T05:50:43;17.80;99.90
3994;DHT22;2011;48.238;13.948;2022-07-17T05:53:10;17.90;99.90
3994;DHT22;2011;48.238;13.948;2022-07-17T05:55:37;18.10;99.90
3994;DHT22;2011;48.238;13.948;2022-07-17T05:58:05;18.20;99.90
3994;DHT22;2011;48.238;13.948;2022-07-17T06:00:33;18.30;99.90
3994;DHT22;2011;48.238;13.948;2022-07-17T06:03:00;18.50;99.90
3994;DHT22;2011;48.238;13.948;2022-07-17T06:05:28;18.60;99.90
3994;DHT22;2011;48.238;13.948;2022-07-17T06:07:56;18.70;99.90
3994;DHT22;2011;48.238;13.948;2022-07-17T06:10:24;18.80;99.90
3994;DHT22;2011;48.238;13.948;2022-07-17T06:12:51;18.90;99.90
3994;DHT22;2011;48.238;13.948;2022-07-17T06:15:21;19.00;99.90
3994;DHT22;2011;48.238;13.948;2022-07-17T06:17:48;19.10;99.90
3994;DHT22;2011;48.238;13.948;2022-07-17T06:20:16;19.20;99.90
3994;DHT22;2011;48.238;13.948;2022-07-17T06:22:43;19.30;99.90
3994;DHT22;2011;48.238;13.948;2022-07-17T06:25:11;19.40;99.90
3994;DHT22;2011;48.238;13.948;2022-07-17T06:27:39;19.50;99.90
3994;DHT22;2011;48.238;13.948;2022-07-17T06:30:07;19.60;99.90
3994;DHT22;2011;48.238;13.948;2022-07-17T06:32:36;19.70;99.90
3994;DHT22;2011;48.238;13.948;2022-07-17T06:35:04;19.80;99.90
3994;DHT22;2011;48.238;13.948;2022-07-17T06:37:31;19.90;99.90
3994;DHT22;2011;48.238;13.948;2022-07-17T06:39:58;20.00;99.90
3994;DHT22;2011;48.238;13.948;2022-07-17T06:42:25;20.00;99.90
3994;DHT22;2011;48.238;13.948;2022-07-17T06:44:52;20.10;99.90
3994;DHT22;2011;48.238;13.948;2022-07-17T06:47:19;20.20;99.90
3994;DHT22;2011;48.238;13.948;2022-07-17T06:49:47;20.30;99.90
3994;DHT22;2011;48.238;13.948;2022-07-17T06:52:15;20.40;99.90
3994;DHT22;2011;48.238;13.948;2022-07-17T06:54:42;20.50;99.90
3994;DHT22;2011;48.238;13.948;2022-07-17T06:57:09;20.60;99.90
3994;DHT22;2011;48.238;13.948;2022-07-17T06:59:36;20.70;99.40
3994;DHT22;2011;48.238;13.948;2022-07-17T07:02:03;20.80;99.90
3994;DHT22;2011;48.238;13.948;2022-07-17T07:04:30;20.90;99.90
3994;DHT22;2011;48.238;13.948;2022-07-17T07:06:58;21.00;99.30
3994;DHT22;2011;48.238;13.948;2022-07-17T07:09:25;21.20;99.90
3994;DHT22;2011;48.238;13.948;2022-07-17T07:11:52;21.30;99.60
3994;DHT22;2011;48.238;13.948;2022-07-17T07:14:19;21.40;98.40
3994;DHT22;2011;48.238;13.948;2022-07-17T07:16:46;21.40;98.00
3994;DHT22;2011;48.238;13.948;2022-07-17T07:19:13;21.50;98.30
3994;DHT22;2011;48.238;13.948;2022-07-17T07:21:40;21.60;97.50
3994;DHT22;2011;48.238;13.948;2022-07-17T07:24:08;21.70;96.70
3994;DHT22;2011;48.238;13.948;2022-07-17T07:26:35;21.70;96.20
3994;DHT22;2011;48.238;13.948;2022-07-17T07:29:02;21.70;96.30
3994;DHT22;2011;48.238;13.948;2022-07-17T07:31:29;21.80;95.80
3994;DHT22;2011;48.238;13.948;2022-07-17T07:33:56;21.90;96.10
3994;DHT22;2011;48.238;13.948;2022-07-17T07:36:23;22.00;96.70
3994;DHT22;2011;48.238;13.948;2022-07-17T07:38:50;22.10;95.80
3994;DHT22;2011;48.238;13.948;2022-07-17T07:41:18;22.20;96.20
3994;DHT22;2011;48.238;13.948;2022-07-17T07:43:45;22.30;95.80
3994;DHT22;2011;48.238;13.948;2022-07-17T07:46:12;22.40;95.30
3994;DHT22;2011;48.238;13.948;2022-07-17T07:48:39;22.50;95.20
3994;DHT22;2011;48.238;13.948;2022-07-17T07:51:06;22.60;94.60
3994;DHT22;2011;48.238;13.948;2022-07-17T07:53:33;22.60;94.70
3994;DHT22;2011;48.238;13.948;2022-07-17T07:56:00;22.70;94.50
3994;DHT22;2011;48.238;13.948;2022-07-17T07:58:28;22.70;93.40
3994;DHT22;2011;48.238;13.948;2022-07-17T08:00:55;22.80;92.60
3994;DHT22;2011;48.238;13.948;2022-07-17T08:03:22;22.80;93.40
3994;DHT22;2011;48.238;13.948;2022-07-17T08:05:49;22.90;93.10
3994;DHT22;2011;48.238;13.948;2022-07-17T08:08:16;23.00;93.00
3994;DHT22;2011;48.238;13.948;2022-07-17T08:10:43;23.20;93.30
3994;DHT22;2011;48.238;13.948;2022-07-17T08:13:10;23.30;93.60
3994;DHT22;2011;48.238;13.948;2022-07-17T08:15:38;23.50;92.20
3994;DHT22;2011;48.238;13.948;2022-07-17T08:18:05;23.50;90.60
3994;DHT22;2011;48.238;13.948;2022-07-17T08:20:33;23.50;91.90
3994;DHT22;2011;48.238;13.948;2022-07-17T08:22:59;23.70;91.30
3994;DHT22;2011;48.238;13.948;2022-07-17T08:25:26;23.70;90.90
3994;DHT22;2011;48.238;13.948;2022-07-17T08:27:53;23.80;90.80
3994;DHT22;2011;48.238;13.948;2022-07-17T08:30:20;23.90;90.20
3994;DHT22;2011;48.238;13.948;2022-07-17T08:32:49;24.00;91.00
3994;DHT22;2011;48.238;13.948;2022-07-17T08:35:16;24.10;91.00
3994;DHT22;2011;48.238;13.948;2022-07-17T08:37:44;24.20;90.50
3994;DHT22;2011;48.238;13.948;2022-07-17T08:40:19;24.20;87.90
3994;DHT22;2011;48.238;13.948;2022-07-17T08:42:46;24.20;86.40
3994;DHT22;2011;48.238;13.948;2022-07-17T08:45:13;24.20;86.80
3994;DHT22;2011;48.238;13.948;2022-07-17T08:47:40;24.30;85.10
3994;DHT22;2011;48.238;13.948;2022-07-17T08:50:09;24.20;84.20
3994;DHT22;2011;48.238;13.948;2022-07-17T08:52:38;24.20;83.40
3994;DHT22;2011;48.238;13.948;2022-07-17T08:55:09;24.20;84.30
3994;DHT22;2011;48.238;13.948;2022-07-17T08:57:37;24.20;80.60
3994;DHT22;2011;48.238;13.948;2022-07-17T09:00:06;24.30;83.40
3994;DHT22;2011;48.238;13.948;2022-07-17T09:02:33;24.40;83.00
3994;DHT22;2011;48.238;13.948;2022-07-17T09:05:01;24.60;81.70
3994;DHT22;2011;48.238;13.948;2022-07-17T09:07:30;24.70;80.00
3994;DHT22;2011;48.238;13.948;2022-07-17T09:09:57;24.80;79.00
3994;DHT22;2011;48.238;13.948;2022-07-17T09:12:26;24.90;81.60
3994;DHT22;2011;48.238;13.948;2022-07-17T09:14:53;25.00;82.40
3994;DHT22;2011;48.238;13.948;2022-07-17T09:17:20;25.00;81.00
3994;DHT22;2011;48.238;13.948;2022-07-17T09:19:48;25.20;80.00
3994;DHT22;2011;48.238;13.948;2022-07-17T09:22:17;25.30;79.30
3994;DHT22;2011;48.238;13.948;2022-07-17T09:24:47;25.40;79.80
3994;DHT22;2011;48.238;13.948;2022-07-17T09:27:27;25.40;79.50
3994;DHT22;2011;48.238;13.948;2022-07-17T09:29:57;25.50;80.80
3994;DHT22;2011;48.238;13.948;2022-07-17T09:32:26;25.60;77.10
3994;DHT22;2011;48.238;13.948;2022-07-17T09:34:58;25.50;76.90
3994;DHT22;2011;48.238;13.948;2022-07-17T09:37:26;25.60;78.70
3994;DHT22;2011;48.238;13.948;2022-07-17T09:39:55;25.60;79.30
3994;DHT22;2011;48.238;13.948;2022-07-17T09:42:25;25.70;78.30
3994;DHT22;2011;48.238;13.948;2022-07-17T09:44:56;25.80;76.40
3994;DHT22;2011;48.238;13.948;2022-07-17T09:47:24;25.90;78.80
3994;DHT22;2011;48.238;13.948;2022-07-17T09:49:52;25.90;75.70
3994;DHT22;2011;48.238;13.948;2022-07-17T09:52:22;26.00;76.30
3994;DHT22;2011;48.238;13.948;2022-07-17T09:54:51;26.00;75.40
3994;DHT22;2011;48.238;13.948;2022-07-17T09:57:20;26.10;76.50
3994;DHT22;2011;48.238;13.948;2022-07-17T09:59:53;26.30;75.30
3994;DHT22;2011;48.238;13.948;2022-07-17T10:02:20;26.40;75.50
3994;DHT22;2011;48.238;13.948;2022-07-17T10:04:48;26.40;73.60
3994;DHT22;2011;48.238;13.948;2022-07-17T10:07:15;26.40;72.80
3994;DHT22;2011;48.238;13.948;2022-07-17T10:09:42;26.50;74.20
3994;DHT22;2011;48.238;13.948;2022-07-17T10:12:10;26.50;76.20
3994;DHT22;2011;48.238;13.948;2022-07-17T10:14:39;26.50;73.90
3994;DHT22;2011;48.238;13.948;2022-07-17T10:17:08;26.60;74.20
3994;DHT22;2011;48.238;13.948;2022-07-17T10:19:44;26.60;70.80
3994;DHT22;2011;48.238;13.948;2022-07-17T10:22:11;26.60;71.20
3994;DHT22;2011;48.238;13.948;2022-07-17T10:24:46;26.70;70.80
3994;DHT22;2011;48.238;13.948;2022-07-17T10:27:22;26.70;69.70
3994;DHT22;2011;48.238;13.948;2022-07-17T10:30:02;26.80;66.70
3994;DHT22;2011;48.238;13.948;2022-07-17T10:32:29;26.90;68.50
3994;DHT22;2011;48.238;13.948;2022-07-17T10:34:59;27.00;68.40
3994;DHT22;2011;48.238;13.948;2022-07-17T10:37:31;27.10;67.50
3994;DHT22;2011;48.238;13.948;2022-07-17T10:40:04;27.20;69.10
3994;DHT22;2011;48.238;13.948;2022-07-17T10:42:44;27.10;67.20
3994;DHT22;2011;48.238;13.948;2022-07-17T10:45:14;27.10;67.90
3994;DHT22;2011;48.238;13.948;2022-07-17T10:47:47;27.20;69.00
3994;DHT22;2011;48.238;13.948;2022-07-17T10:50:17;27.30;67.60
3994;DHT22;2011;48.238;13.948;2022-07-17T10:52:44;27.40;68.30
3994;DHT22;2011;48.238;13.948;2022-07-17T10:55:19;27.60;65.40
3994;DHT22;2011;48.238;13.948;2022-07-17T10:57:46;27.60;64.30
3994;DHT22;2011;48.238;13.948;2022-07-17T11:00:15;27.60;63.70
3994;DHT22;2011;48.238;13.948;2022-07-17T11:02:43;27.40;61.30
3994;DHT22;2011;48.238;13.948;2022-07-17T11:05:12;27.50;63.20
3994;DHT22;2011;48.238;13.948;2022-07-17T11:07:49;27.70;63.20
3994;DHT22;2011;48.238;13.948;2022-07-17T11:10:16;27.80;61.80
3994;DHT22;2011;48.238;13.948;2022-07-17T11:12:43;27.90;60.30
3994;DHT22;2011;48.238;13.948;2022-07-17T11:15:10;27.80;59.60
3994;DHT22;2011;48.238;13.948;2022-07-17T11:17:40;27.90;62.90
3994;DHT22;2011;48.238;13.948;2022-07-17T11:20:10;27.90;61.90
3994;DHT22;2011;48.238;13.948;2022-07-17T11:22:37;27.90;60.30
3994;DHT22;2011;48.238;13.948;2022-07-17T11:25:05;27.80;59.10
3994;DHT22;2011;48.238;13.948;2022-07-17T11:27:32;27.80;61.80
3994;DHT22;2011;48.238;13.948;2022-07-17T11:30:01;27.90;62.10
3994;DHT22;2011;48.238;13.948;2022-07-17T11:32:32;28.10;62.30
3994;DHT22;2011;48.238;13.948;2022-07-17T11:35:00;28.20;65.50
3994;DHT22;2011;48.238;13.948;2022-07-17T11:37:29;28.40;61.10
3994;DHT22;2011;48.238;13.948;2022-07-17T11:39:57;28.40;57.50
3994;DHT22;2011;48.238;13.948;2022-07-17T11:42:24;28.40;58.50
3994;DHT22;2011;48.238;13.948;2022-07-17T11:44:54;28.60;59.90
3994;DHT22;2011;48.238;13.948;2022-07-17T11:47:23;28.70;61.00
3994;DHT22;2011;48.238;13.948;2022-07-17T11:49:50;28.70;59.70
3994;DHT22;2011;48.238;13.948;2022-07-17T11:52:20;28.80;61.10
3994;DHT22;2011;48.238;13.948;2022-07-17T11:54:48;28.90;59.20
3994;DHT22;2011;48.238;13.948;2022-07-17T11:57:16;29.00;59.90
3994;DHT22;2011;48.238;13.948;2022-07-17T11:59:45;29.00;58.20
3994;DHT22;2011;48.238;13.948;2022-07-17T12:02:13;29.10;60.80
3994;DHT22;2011;48.238;13.948;2022-07-17T12:04:51;29.20;60.60
3994;DHT22;2011;48.238;13.948;2022-07-17T12:07:20;29.30;59.90
3994;DHT22;2011;48.238;13.948;2022-07-17T12:09:47;29.40;59.20
3994;DHT22;2011;48.238;13.948;2022-07-17T12:12:19;29.40;59.00
3994;DHT22;2011;48.238;13.948;2022-07-17T12:14:49;29.40;58.40
3994;DHT22;2011;48.238;13.948;2022-07-17T12:17:16;29.50;59.10
3994;DHT22;2011;48.238;13.948;2022-07-17T12:19:43;29.60;55.60
3994;DHT22;2011;48.238;13.948;2022-07-17T12:22:11;29.50;55.30
3994;DHT22;2011;48.238;13.948;2022-07-17T12:24:44;29.50;55.40
3994;DHT22;2011;48.238;13.948;2022-07-17T12:27:14;29.60;57.30
3994;DHT22;2011;48.238;13.948;2022-07-17T12:29:44;29.40;56.50
3994;DHT22;2011;48.238;13.948;2022-07-17T12:32:16;28.80;56.90
3994;DHT22;2011;48.238;13.948;2022-07-17T12:34:48;28.80;52.50
3994;DHT22;2011;48.238;13.948;2022-07-17T12:37:17;28.90;50.50
3994;DHT22;2011;48.238;13.948;2022-07-17T12:39:49;28.90;50.10
3994;DHT22;2011;48.238;13.948;2022-07-17T12:42:17;29.10;53.50
3994;DHT22;2011;48.238;13.948;2022-07-17T12:44:45;29.20;55.20
3994;DHT22;2011;48.238;13.948;2022-07-17T12:47:13;29.40;55.80
3994;DHT22;2011;48.238;13.948;2022-07-17T12:49:41;29.40;54.10
3994;DHT22;2011;48.238;13.948;2022-07-17T12:52:10;29.70;54.10
3994;DHT22;2011;48.238;13.948;2022-07-17T12:54:47;29.90;54.20
3994;DHT22;2011;48.238;13.948;2022-07-17T12:57:18;30.20;55.70
3994;DHT22;2011;48.238;13.948;2022-07-17T12:59:51;30.20;53.40
3994;DHT22;2011;48.238;13.948;2022-07-17T13:02:25;30.30;54.90
3994;DHT22;2011;48.238;13.948;2022-07-17T13:04:54;30.30;52.50
3994;DHT22;2011;48.238;13.948;2022-07-17T13:07:22;30.40;52.90
3994;DHT22;2011;48.238;13.948;2022-07-17T13:09:52;30.50;54.40
3994;DHT22;2011;48.238;13.948;2022-07-17T13:12:22;30.60;52.40
3994;DHT22;2011;48.238;13.948;2022-07-17T13:14:49;30.60;49.40
3994;DHT22;2011;48.238;13.948;2022-07-17T13:17:18;30.60;48.40
3994;DHT22;2011;48.238;13.948;2022-07-17T13:19:46;30.60;49.20
3994;DHT22;2011;48.238;13.948;2022-07-17T13:22:14;30.70;51.10
3994;DHT22;2011;48.238;13.948;2022-07-17T13:24:41;30.80;52.40
3994;DHT22;2011;48.238;13.948;2022-07-17T13:27:12;30.90;51.50
3994;DHT22;2011;48.238;13.948;2022-07-17T13:29:39;30.90;51.20
3994;DHT22;2011;48.238;13.948;2022-07-17T13:32:08;30.90;51.30
3994;DHT22;2011;48.238;13.948;2022-07-17T13:34:37;31.00;51.10
3994;DHT22;2011;48.238;13.948;2022-07-17T13:37:05;30.80;48.00
3994;DHT22;2011;48.238;13.948;2022-07-17T13:39:33;30.60;48.80
3994;DHT22;2011;48.238;13.948;2022-07-17T13:42:07;30.70;47.90
3994;DHT22;2011;48.238;13.948;2022-07-17T13:44:40;30.60;48.40
3994;DHT22;2011;48.238;13.948;2022-07-17T13:47:12;30.90;49.70
3994;DHT22;2011;48.238;13.948;2022-07-17T13:49:41;31.00;46.90
3994;DHT22;2011;48.238;13.948;2022-07-17T13:52:10;30.90;45.90
3994;DHT22;2011;48.238;13.948;2022-07-17T13:54:41;31.10;49.70
3994;DHT22;2011;48.238;13.948;2022-07-17T13:57:10;31.30;49.70
3994;DHT22;2011;48.238;13.948;2022-07-17T13:59:43;31.30;48.60
3994;DHT22;2011;48.238;13.948;2022-07-17T14:02:12;31.40;46.40
3994;DHT22;2011;48.238;13.948;2022-07-17T14:04:40;31.40;47.40
3994;DHT22;2011;48.238;13.948;2022-07-17T14:07:10;31.50;45.40
3994;DHT22;2011;48.238;13.948;2022-07-17T14:09:37;31.40;44.10
3994;DHT22;2011;48.238;13.948;2022-07-17T14:12:07;31.30;44.50
3994;DHT22;2011;48.238;13.948;2022-07-17T14:14:35;31.50;44.70
3994;DHT22;2011;48.238;13.948;2022-07-17T14:17:05;31.60;45.90
3994;DHT22;2011;48.238;13.948;2022-07-17T14:19:34;31.70;47.50
3994;DHT22;2011;48.238;13.948;2022-07-17T14:22:02;31.80;48.20
3994;DHT22;2011;48.238;13.948;2022-07-17T14:24:30;31.80;47.60
3994;DHT22;2011;48.238;13.948;2022-07-17T14:26:59;32.00;46.60
3994;DHT22;2011;48.238;13.948;2022-07-17T14:29:27;32.10;47.50
3994;DHT22;2011;48.238;13.948;2022-07-17T14:31:55;31.90;43.80
3994;DHT22;2011;48.238;13.948;2022-07-17T14:34:24;31.80;42.80
3994;DHT22;2011;48.238;13.948;2022-07-17T14:36:53;31.30;42.10
3994;DHT22;2011;48.238;13.948;2022-07-17T14:39:22;31.10;42.30
3994;DHT22;2011;48.238;13.948;2022-07-17T14:41:52;31.10;44.40
3994;DHT22;2011;48.238;13.948;2022-07-17T14:44:21;31.30;46.50
3994;DHT22;2011;48.238;13.948;2022-07-17T14:46:51;31.50;46.50
3994;DHT22;2011;48.238;13.948;2022-07-17T14:49:21;31.70;45.30
3994;DHT22;2011;48.238;13.948;2022-07-17T14:51:56;31.90;45.40
3994;DHT22;2011;48.238;13.948;2022-07-17T14:54:25;32.00;45.90
3994;DHT22;2011;48.238;13.948;2022-07-17T14:56:53;32.10;45.80
3994;DHT22;2011;48.238;13.948;2022-07-17T14:59:21;32.20;45.00
3994;DHT22;2011;48.238;13.948;2022-07-17T15:01:50;32.20;45.30
3994;DHT22;2011;48.238;13.948;2022-07-17T15:04:21;32.30;45.10
3994;DHT22;2011;48.238;13.948;2022-07-17T15:06:48;32.30;44.30
3994;DHT22;2011;48.238;13.948;2022-07-17T15:09:18;32.30;42.70
3994;DHT22;2011;48.238;13.948;2022-07-17T15:11:46;32.40;41.80
3994;DHT22;2011;48.238;13.948;2022-07-17T15:14:18;32.30;43.90
3994;DHT22;2011;48.238;13.948;2022-07-17T15:16:45;32.50;44.80
3994;DHT22;2011;48.238;13.948;2022-07-17T15:19:14;32.50;44.40
3994;DHT22;2011;48.238;13.948;2022-07-17T15:21:41;32.60;44.30
3994;DHT22;2011;48.238;13.948;2022-07-17T15:24:09;32.50;44.30
3994;DHT22;2011;48.238;13.948;2022-07-17T15:26:40;32.50;45.10
3994;DHT22;2011;48.238;13.948;2022-07-17T15:29:07;32.50;45.50
3994;DHT22;2011;48.238;13.948;2022-07-17T15:31:36;32.50;44.00
3994;DHT22;2011;48.238;13.948;2022-07-17T15:34:03;32.50;44.60
3994;DHT22;2011;48.238;13.948;2022-07-17T15:36:31;32.70;44.60
3994;DHT22;2011;48.238;13.948;2022-07-17T15:38:59;32.90;44.10
3994;DHT22;2011;48.238;13.948;2022-07-17T15:41:27;32.90;43.50
3994;DHT22;2011;48.238;13.948;2022-07-17T15:43:56;32.90;42.30
3994;DHT22;2011;48.238;13.948;2022-07-17T15:46:24;32.80;41.90
3994;DHT22;2011;48.238;13.948;2022-07-17T15:48:51;32.90;43.90
3994;DHT22;2011;48.238;13.948;2022-07-17T15:51:19;33.00;44.70